Time;durP1;ratioP1;P1;durP2;ratioP2;P2;SDS_P1;SDS_P2;PMS_P1;PMS_P2;Temp;Humidity;BMP_temperature;BMP_pressure;BME280_temperature;BME280_humidity;BME280_pressure;Samples;Min_cycle;Max_cycle;Signal;HPM_P1;HPM_P2
2022/06/12 00:00:59;;;;;;;23.50;16.95;;;;;;;21.85;47.09;99437.72;1732826;80;21591;-63
2022/06/12 00:03:27;;;;;;;22.98;17.42;;;;;;;21.83;47.37;99439.69;1738142;80;21770;-62
2022/06/12 00:05:56;;;;;;;26.35;17.20;;;;;;;21.83;47.23;99434.81;1725377;80;21546;-62
2022/06/12 00:08:24;;;;;;;24.00;18.37;;;;;;;21.84;47.42;99434.67;1725840;80;21517;-62
2022/06/12 00:10:53;;;;;;;28.40;20.03;;;;;;;21.85;47.63;99431.02;1727577;80;21500;-62
2022/06/12 00:13:28;;;;;;;35.20;21.48;;;;;;;21.87;47.76;99435.73;1715105;81;21933;-62
2022/06/12 00:15:55;;;;;;;25.37;20.32;;;;;;;21.89;48.42;99432.42;1714689;81;21806;-62
2022/06/12 00:18:23;;;;;;;29.65;22.15;;;;;;;21.85;48.54;99435.04;1726804;81;21546;-62
2022/06/12 00:21:10;;;;;;;;;;;;;;;21.85;49.05;99434.17;1720640;80;21431;-62
2022/06/12 00:23:19;;;;;;;31.93;21.48;;;;;;;21.82;49.53;99438.49;1709905;81;20437;-62
2022/06/12 00:25:45;;;;;;;32.30;21.65;;;;;;;21.82;49.13;99435.31;1724579;81;21546;-62
2022/06/12 00:28:12;;;;;;;34.38;21.77;;;;;;;21.82;49.50;99435.81;1729605;81;22108;-62
2022/06/12 00:30:39;;;;;;;28.12;20.92;;;;;;;21.81;49.64;99436.78;1718357;80;26927;-62
2022/06/12 00:33:06;;;;;;;36.65;23.18;;;;;;;21.78;50.12;99437.92;1712844;81;20990;-62
2022/06/12 00:35:55;;;;;;;34.45;22.27;;;;;;;21.71;50.72;99436.30;1728604;81;21511;-62
2022/06/12 00:38:22;;;;;;;28.50;21.70;;;;;;;21.71;50.72;99436.30;1681790;83;21003;-62
2022/06/12 00:40:49;;;;;;;28.02;20.90;;;;;;;21.63;51.34;99436.17;1681624;83;21763;-62
2022/06/12 00:43:16;;;;;;;31.42;22.75;;;;;;;21.62;51.87;99435.81;1682398;83;21661;-62
2022/06/12 00:45:52;;;;;;;26.25;20.90;;;;;;;21.58;52.45;99441.94;1681426;83;21493;-63
2022/06/12 00:48:23;;;;;;;;;;;;;;;21.58;53.09;99443.77;1677715;83;21614;-62
2022/06/12 00:51:12;;;;;;;28.27;19.80;;;;;;;21.54;54.60;99443.70;1681554;83;20463;-62
2022/06/12 00:53:48;;;;;;;26.42;19.77;;;;;;;21.54;54.10;99444.55;1677275;83;21873;-62
2022/06/12 00:56:19;;;;;;;28.77;19.75;;;;;;;21.55;54.46;99440.90;1682166;83;21466;-62
2022/06/12 00:58:56;;;;;;;28.23;19.75;;;;;;;21.56;54.88;99447.08;1679516;83;21618;-62
2022/06/12 01:01:31;;;;;;;30.70;19.85;;;;;;;21.56;55.20;99435.05;1681534;83;21451;-62
2022/06/12 01:06:46;;;;;;;26.62;18.92;;;;;;;21.50;55.64;99435.63;1710305;82;21797;-62
2022/06/12 01:09:24;;;;;;;22.22;17.40;;;;;;;21.49;55.76;99435.25;1710711;83;21392;-62
2022/06/12 01:11:53;;;;;;;22.35;17.73;;;;;;;21.48;56.59;99430.41;1704822;82;21486;-62
2022/06/12 01:14:25;;;;;;;21.37;16.93;;;;;;;21.51;56.99;99428.80;1705459;81;21566;-62
2022/06/12 01:16:53;;;;;;;23.25;16.65;;;;;;;21.53;57.12;99436.19;1711524;82;21438;-62
2022/06/12 01:19:43;;;;;;;20.68;16.77;;;;;;;21.55;57.41;99434.72;1705670;82;21817;-62
2022/06/12 01:22:57;;;;;;;20.00;16.97;;;;;;;21.53;57.56;99433.98;1702623;82;21584;-63
2022/06/12 01:26:10;;;;;;;22.67;16.85;;;;;;;21.53;57.65;99433.98;1695996;82;21406;-62
2022/06/12 01:29:13;;;;;;;19.15;15.58;;;;;;;21.48;57.58;99432.24;1706155;81;21701;-61
2022/06/12 01:31:52;;;;;;;22.05;15.80;;;;;;;21.45;57.91;99432.02;1698654;82;21616;-61
2022/06/12 01:34:54;;;;;;;17.62;15.75;;;;;;;21.49;58.39;99435.25;1666322;84;21785;-62
2022/06/12 01:37:35;;;;;;;17.10;15.30;;;;;;;21.49;58.65;99433.91;1643791;85;21524;-62
2022/06/12 01:40:16;;;;;;;22.62;15.85;;;;;;;21.48;58.53;99429.06;1673290;84;21521;-62
2022/06/12 01:42:56;;;;;;;20.17;15.68;;;;;;;21.49;58.58;99427.23;1674187;83;21547;-61
2022/06/12 01:45:41;;;;;;;19.95;16.00;;;;;;;21.49;58.77;99428.56;1676343;83;21467;-62
2022/06/12 01:48:46;;;;;;;16.57;14.85;;;;;;;21.50;58.95;99423.58;1674721;83;21539;-62
2022/06/12 01:51:45;;;;;;;18.95;14.75;;;;;;;21.55;59.25;99426.69;1674391;83;21582;-63
2022/06/12 01:54:39;;;;;;;21.40;14.90;;;;;;;21.57;59.62;99426.05;1670251;84;21551;-63
2022/06/12 01:57:41;;;;;;;20.50;15.30;;;;;;;21.60;59.69;99420.40;1674589;84;21042;-63
2022/06/12 02:00:12;;;;;;;18.15;15.38;;;;;;;21.63;59.73;99417.45;1676224;85;21540;-64
2022/06/12 02:02:50;;;;;;;19.75;14.60;;;;;;;21.64;59.60;99422.30;1670502;83;21895;-64
2022/06/12 02:05:35;;;;;;;17.07;15.28;;;;;;;21.64;59.60;99422.30;1670218;83;21535;-64
2022/06/12 02:08:38;;;;;;;15.32;13.83;;;;;;;21.61;59.93;99425.28;1674106;83;21442;-64
2022/06/12 02:13:56;;;;;;;15.98;14.10;;;;;;;21.63;60.50;99428.66;1668836;84;21592;-64
2022/06/12 02:16:34;;;;;;;18.60;13.55;;;;;;;21.65;60.53;99421.33;1677131;83;21852;-64
2022/06/12 02:19:13;;;;;;;;;;;;;;;21.66;60.83;99426.55;1688132;83;21521;-64
2022/06/12 02:22:12;;;;;;;16.23;14.53;;;;;;;21.66;61.17;99426.55;1698288;82;20137;-64
2022/06/12 02:24:53;;;;;;;15.28;13.55;;;;;;;21.68;60.85;99431.25;1667298;84;21120;-64
2022/06/12 02:27:29;;;;;;;18.42;14.75;;;;;;;21.66;61.03;99429.69;1666242;85;21455;-64
2022/06/12 02:30:14;;;;;;;19.95;14.95;;;;;;;21.65;61.22;99428.85;1673660;84;21723;-64
2022/06/12 02:32:57;;;;;;;17.00;14.57;;;;;;;21.66;61.25;99424.34;1637149;83;21168;-64
2022/06/12 02:35:41;;;;;;;15.93;13.83;;;;;;;21.67;61.49;99424.20;1674832;84;21514;-64
2022/06/12 02:38:32;;;;;;;15.55;13.75;;;;;;;21.74;61.50;99427.17;1681056;83;21690;-64
2022/06/12 02:41:08;;;;;;;18.32;12.80;;;;;;;21.79;61.55;99423.55;1673479;84;21589;-62
2022/06/12 02:43:38;;;;;;;18.02;14.00;;;;;;;21.84;61.53;99420.45;1673061;83;21654;-62
2022/06/12 02:46:25;;;;;;;16.50;14.68;;;;;;;21.88;61.58;99418.67;1675155;85;21560;-61
2022/06/12 02:48:52;;;;;;;17.15;13.13;;;;;;;21.90;61.77;99419.38;1670404;84;21623;-62
2022/06/12 02:51:41;;;;;;;14.53;12.88;;;;;;;21.92;61.84;99419.23;1672895;83;21582;-61
2022/06/12 02:54:25;;;;;;;18.57;14.07;;;;;;;21.95;61.89;99420.30;1671728;84;21540;-61
2022/06/12 02:57:19;;;;;;;14.90;13.05;;;;;;;21.99;62.10;99425.70;1673743;85;21939;-63
2022/06/12 03:00:22;;;;;;;19.32;13.30;;;;;;;22.03;62.12;99423.08;1667357;85;21579;-64
2022/06/12 03:03:04;;;;;;;18.32;13.93;;;;;;;22.06;62.15;99418.80;1649653;86;21561;-63
2022/06/12 03:05:34;;;;;;;15.80;13.60;;;;;;;22.08;62.20;99427.52;1651403;85;21578;-60
2022/06/12 03:08:06;;;;;;;16.82;13.65;;;;;;;22.08;62.21;99415.47;1594263;88;21569;-58
2022/06/12 03:10:37;;;;;;;14.38;12.43;;;;;;;22.10;62.43;99416.17;1594749;88;21835;-66
2022/06/12 03:13:06;;;;;;;19.87;13.95;;;;;;;22.12;62.56;99426.23;1606910;88;21752;-64
2022/06/12 03:15:42;;;;;;;17.25;13.58;;;;;;;22.14;62.66;99421.58;1653089;85;21581;-67
2022/06/12 03:18:20;;;;;;;15.90;13.22;;;;;;;22.15;62.85;99427.30;1646362;85;21532;-66
2022/06/12 03:21:29;;;;;;;14.98;13.40;;;;;;;22.18;63.00;99423.97;1652063;85;21113;-66
2022/06/12 03:24:07;;;;;;;17.07;13.18;;;;;;;22.21;63.18;99423.19;1651315;85;21870;-66
2022/06/12 03:26:55;;;;;;;19.07;13.43;;;;;;;22.26;63.01;99424.95;1629792;85;21582;-65
2022/06/12 03:30:09;;;;;;;15.18;13.03;;;;;;;22.29;63.09;99425.17;1638072;85;21501;-65
2022/06/12 03:33:22;;;;;;;15.85;12.53;;;;;;;22.33;63.25;99422.55;1653186;85;21623;-64
2022/06/12 03:36:00;;;;;;;14.70;13.03;;;;;;;22.34;63.52;99426.42;1650659;85;21691;-63
2022/06/12 03:38:52;;;;;;;18.70;13.55;;;;;;;22.41;63.54;99417.79;1648792;85;21825;-63
2022/06/12 03:41:36;;;;;;;14.55;13.08;;;;;;;22.53;63.72;99418.80;1647506;85;21694;-64
2022/06/12 03:44:14;;;;;;;19.80;13.60;;;;;;;22.68;63.51;99416.47;1635558;85;21054;-64
2022/06/12 03:46:58;;;;;;;18.45;12.70;;;;;;;22.81;63.46;99420.15;1649932;85;21077;-65
2022/06/12 03:49:36;;;;;;;14.43;12.78;;;;;;;22.90;63.53;99428.60;1644643;85;20971;-64
2022/06/12 03:52:17;;;;;;;18.90;13.60;;;;;;;23.00;63.78;99422.34;1646289;86;21790;-63
2022/06/12 03:55:05;;;;;;;14.33;12.63;;;;;;;23.06;64.05;99417.27;1624926;85;21566;-63
2022/06/12 03:57:53;;;;;;;;;;;;;;;23.19;63.60;99417.38;1628498;86;21687;-63
2022/06/12 04:00:39;;;;;;;14.65;12.13;;;;;;;23.25;63.97;99420.81;1638366;85;20437;-64
2022/06/12 04:03:29;;;;;;;14.47;12.35;;;;;;;23.24;64.04;99425.31;1647564;85;21566;-63
2022/06/12 04:06:06;;;;;;;17.85;12.70;;;;;;;23.23;64.03;99418.27;1648570;85;21849;-63
2022/06/12 04:08:41;;;;;;;17.27;12.97;;;;;;;23.23;64.03;99418.27;1644615;85;21545;-63
2022/06/12 04:11:10;;;;;;;15.28;12.73;;;;;;;23.37;64.50;99422.76;1647506;85;21863;-64
2022/06/12 04:13:38;;;;;;;15.48;12.80;;;;;;;23.37;64.50;99422.76;1650233;85;21483;-63
2022/06/12 04:16:34;;;;;;;14.87;13.30;;;;;;;23.43;64.33;99428.37;1652806;85;21578;-64
2022/06/12 04:19:03;;;;;;;15.38;13.88;;;;;;;23.57;64.34;99424.29;1651485;85;21676;-63
2022/06/12 04:21:37;;;;;;;16.57;13.28;;;;;;;23.57;64.34;99424.29;1650014;85;21434;-64
2022/06/12 04:24:16;;;;;;;15.03;13.53;;;;;;;23.63;64.29;99430.37;1647381;85;21525;-64
2022/06/12 04:27:05;;;;;;;14.47;13.00;;;;;;;23.81;64.64;99441.61;1649330;85;21525;-63
2022/06/12 04:29:36;;;;;;;15.35;13.72;;;;;;;23.81;64.64;99441.61;1648858;85;21071;-64
2022/06/12 04:32:05;;;;;;;15.03;13.13;;;;;;;23.96;64.05;99432.02;1649047;85;21759;-63
2022/06/12 04:34:39;;;;;;;14.15;12.70;;;;;;;24.07;64.33;99440.29;1654406;85;21527;-64
2022/06/12 04:37:21;;;;;;;14.20;12.23;;;;;;;24.07;64.33;99440.29;1647642;85;21530;-64
2022/06/12 04:39:49;;;;;;;16.05;13.38;;;;;;;24.27;64.92;99435.05;1639474;85;21526;-64
2022/06/12 04:42:18;;;;;;;15.80;13.30;;;;;;;24.27;64.92;99435.05;1646126;85;21509;-62
2022/06/12 04:44:44;;;;;;;16.65;12.35;;;;;;;24.38;64.34;99434.45;1650543;85;21585;-63
2022/06/12 04:47:13;;;;;;;14.00;12.10;;;;;;;24.48;64.12;99441.38;1651266;85;21557;-62
2022/06/12 04:49:40;;;;;;;13.28;11.95;;;;;;;24.56;63.79;99437.08;1646456;85;21046;-61
2022/06/12 04:52:09;;;;;;;17.17;12.03;;;;;;;24.68;63.85;99433.95;1650028;85;21537;-64
2022/06/12 04:54:36;;;;;;;12.30;11.20;;;;;;;24.80;63.46;99437.18;1645764;85;21556;-64
2022/06/12 04:57:04;;;;;;;12.58;11.38;;;;;;;24.94;63.08;99435.73;1650093;85;22849;-67
2022/06/12 04:59:31;;;;;;;11.88;10.88;;;;;;;25.09;63.12;99443.16;1651068;85;21677;-65
2022/06/12 05:01:58;;;;;;;12.90;11.50;;;;;;;25.17;62.63;99439.99;1637298;86;21723;-62
2022/06/12 05:04:25;;;;;;;13.70;11.90;;;;;;;25.31;62.62;99437.69;1657780;85;21060;-61
2022/06/12 05:06:52;;;;;;;14.43;11.73;;;;;;;25.42;62.16;99445.45;1649266;84;21608;-60
2022/06/12 05:09:21;;;;;;;12.60;11.25;;;;;;;25.47;61.72;99437.73;1651490;85;21808;-58
2022/06/12 05:11:48;;;;;;;12.80;11.50;;;;;;;25.56;61.23;99447.49;1649886;85;21543;-59
2022/06/12 05:14:15;;;;;;;12.07;10.70;;;;;;;25.61;60.78;99439.73;1649208;85;21514;-57
2022/06/12 05:16:54;;;;;;;15.72;11.83;;;;;;;25.71;60.70;99449.50;1653289;84;21553;-57
2022/06/12 05:19:26;;;;;;;13.83;11.65;;;;;;;25.77;60.57;99442.95;1645549;85;21521;-60
2022/06/12 05:21:54;;;;;;;14.80;11.57;;;;;;;25.86;60.37;99442.94;1645030;85;21494;-58
2022/06/12 05:24:20;;;;;;;13.93;12.50;;;;;;;25.91;60.30;99437.89;1646077;85;21572;-59
2022/06/12 05:26:48;;;;;;;14.73;13.25;;;;;;;25.95;60.14;99440.61;1650297;85;21065;-59
2022/06/12 05:29:30;;;;;;;17.12;12.82;;;;;;;26.09;60.49;99440.41;1653412;85;20990;-59
2022/06/12 05:31:58;;;;;;;16.15;12.68;;;;;;;26.12;60.32;99440.91;1651824;85;21623;-60
2022/06/12 05:34:25;;;;;;;13.75;12.58;;;;;;;26.18;60.21;99441.59;1653817;85;22073;-61
2022/06/12 05:36:52;;;;;;;14.60;12.60;;;;;;;26.26;59.50;99440.73;1652390;85;21557;-60
2022/06/12 05:39:19;;;;;;;17.07;12.10;;;;;;;26.30;59.21;99439.38;1647245;85;21498;-60
2022/06/12 05:41:46;;;;;;;19.55;12.13;;;;;;;26.37;58.79;99437.67;1646083;84;21537;-60
2022/06/12 05:44:14;;;;;;;16.82;10.75;;;;;;;26.44;58.52;99440.50;1639936;85;21509;-61
2022/06/12 05:46:40;;;;;;;14.25;11.97;;;;;;;26.51;58.14;99438.80;1599684;87;21837;-60
2022/06/12 05:49:07;;;;;;;14.38;12.20;;;;;;;26.57;57.29;99439.45;1597467;88;21577;-59
2022/06/12 05:51:34;;;;;;;19.32;12.37;;;;;;;26.60;56.73;99430.22;1606065;88;21050;-60
2022/06/12 05:54:01;;;;;;;13.08;11.53;;;;;;;26.63;55.89;99438.45;1620231;86;21580;-62
2022/06/12 05:56:28;;;;;;;12.25;10.98;;;;;;;26.65;56.03;99441.30;1608476;88;21498;-60
2022/06/12 05:58:55;;;;;;;;;;;;;;;26.71;55.88;99433.89;1625272;87;21837;-60
2022/06/12 06:01:23;;;;;;;12.70;11.40;;;;;;;26.72;55.93;99434.20;1619664;86;20460;-59
2022/06/12 06:03:50;;;;;;;12.37;11.18;;;;;;;26.80;55.52;99438.23;1607719;88;21558;-59
2022/06/12 06:06:24;;;;;;;14.45;11.53;;;;;;;26.85;55.25;99439.55;1606016;88;21006;-59
2022/06/12 06:08:52;;;;;;;14.30;11.10;;;;;;;26.91;55.52;99444.23;1621425;87;21538;-61
2022/06/12 06:11:19;;;;;;;11.85;10.48;;;;;;;26.99;55.21;99443.70;1616922;86;21837;-60
2022/06/12 06:13:46;;;;;;;14.47;11.55;;;;;;;27.07;54.80;99443.30;1620600;85;21434;-60
2022/06/12 06:16:15;;;;;;;11.97;10.53;;;;;;;27.06;55.07;99443.81;1615093;87;22195;-59
2022/06/12 06:18:42;;;;;;;13.93;11.50;;;;;;;27.05;55.08;99436.75;1621588;85;21474;-59
2022/06/12 06:21:10;;;;;;;15.50;11.40;;;;;;;27.19;54.68;99444.59;1620166;85;21572;-58
2022/06/12 06:23:39;;;;;;;13.20;10.63;;;;;;;27.19;54.17;99440.02;1618873;85;22000;-59
2022/06/12 06:28:22;;;;;;;14.15;11.50;;;;;;;26.74;56.91;99438.91;1780458;78;23223;-59
2022/06/12 06:30:50;;;;;;;20.82;11.28;;;;;;;27.32;54.18;99444.04;1737731;80;21478;-59
2022/06/12 06:33:16;;;;;;;12.43;10.78;;;;;;;27.45;53.40;99440.75;1743906;80;22267;-61
2022/06/12 06:35:43;;;;;;;11.18;10.05;;;;;;;27.49;53.38;99433.97;1728155;80;21651;-59
2022/06/12 06:38:10;;;;;;;10.03;9.13;;;;;;;27.57;53.46;99442.00;1733160;80;21518;-60
2022/06/12 06:40:37;;;;;;;14.27;10.43;;;;;;;27.64;53.38;99438.08;1690305;81;21060;-61
2022/06/12 06:43:03;;;;;;;12.35;9.73;;;;;;;27.72;53.02;99438.00;1689863;83;21859;-60
2022/06/12 06:48:15;;;;;;;10.55;9.53;;;;;;;27.85;52.83;99440.09;1696364;83;21435;-61
2022/06/12 06:50:42;;;;;;;10.28;9.38;;;;;;;27.93;51.87;99440.90;1688908;83;21570;-61
2022/06/12 06:53:09;;;;;;;10.32;9.28;;;;;;;27.95;51.66;99436.15;1693254;83;21534;-61
2022/06/12 06:55:36;;;;;;;9.68;8.78;;;;;;;28.02;51.47;99434.05;1687177;84;21537;-60
2022/06/12 06:58:07;;;;;;;9.38;8.58;;;;;;;28.08;51.02;99435.49;1693223;83;21873;-61
2022/06/12 07:00:34;;;;;;;8.93;8.13;;;;;;;28.11;50.30;99435.66;1697513;83;21589;-60
2022/06/12 07:03:01;;;;;;;10.63;8.73;;;;;;;28.14;49.99;99433.91;1707526;82;21582;-62
2022/06/12 07:05:29;;;;;;;12.47;8.53;;;;;;;28.20;49.84;99439.95;1703792;82;21558;-62
2022/06/12 07:07:56;;;;;;;12.95;7.65;;;;;;;28.23;49.74;99443.63;1712424;82;21567;-60
2022/06/12 07:10:24;;;;;;;9.93;7.92;;;;;;;28.26;49.21;99435.16;1707090;82;21780;-59
2022/06/12 07:12:51;;;;;;;;;;;;;;;28.30;49.00;99432.92;1711810;82;21639;-61
2022/06/12 07:15:19;;;;;;;7.78;6.95;;;;;;;28.35;48.78;99438.10;1685296;82;20170;-59
2022/06/12 07:17:45;;;;;;;;;;;;;;;28.41;48.36;99429.76;1706118;82;21022;-60
2022/06/12 07:20:14;;;;;;;7.78;7.05;;;;;;;28.47;47.37;99431.70;1701817;83;20405;-59
2022/06/12 07:22:41;;;;;;;9.48;6.30;;;;;;;28.51;46.81;99433.52;1702592;82;21785;-59
2022/06/12 07:25:09;;;;;;;10.53;7.33;;;;;;;28.59;46.61;99441.56;1702725;82;21573;-60
2022/06/12 07:27:35;;;;;;;6.95;6.25;;;;;;;28.67;46.45;99439.27;1693924;82;21475;-59
2022/06/12 07:30:04;;;;;;;7.70;6.58;;;;;;;28.69;46.00;99434.02;1685242;82;21447;-60
2022/06/12 07:32:31;;;;;;;10.78;7.25;;;;;;;28.77;46.15;99435.78;1673916;82;21018;-60
2022/06/12 07:34:57;;;;;;;8.93;6.97;;;;;;;28.84;46.50;99431.30;1685181;82;21501;-60
2022/06/12 07:37:24;;;;;;;7.53;6.30;;;;;;;28.93;47.14;99427.45;1691127;83;21634;-60
2022/06/12 07:39:51;;;;;;;6.65;6.05;;;;;;;29.06;46.44;99429.97;1686275;82;22005;-59
2022/06/12 07:42:18;;;;;;;8.10;6.65;;;;;;;29.18;46.37;99424.44;1692451;82;21462;-60
2022/06/12 07:44:45;;;;;;;13.15;7.17;;;;;;;29.28;45.45;99423.59;1695566;82;21639;-61
2022/06/12 07:47:13;;;;;;;7.25;6.17;;;;;;;29.36;45.05;99426.69;1692599;82;21510;-60
2022/06/12 07:49:41;;;;;;;7.33;6.58;;;;;;;29.39;44.64;99430.37;1699710;82;21453;-60
2022/06/12 07:52:08;;;;;;;10.13;7.55;;;;;;;29.36;43.68;99432.62;1681407;82;21481;-60
2022/06/12 07:54:36;;;;;;;8.35;6.85;;;;;;;29.39;44.16;99424.13;1691988;82;21563;-60
2022/06/12 07:57:04;;;;;;;7.92;7.12;;;;;;;29.44;43.51;99417.59;1736352;80;21565;-60
2022/06/12 07:59:30;;;;;;;;;;;;;;;29.50;43.64;99420.91;1726361;80;21745;-60
2022/06/12 08:01:57;;;;;;;9.50;7.83;;;;;;;29.57;43.53;99420.42;1731523;80;20223;-60
2022/06/12 08:04:23;;;;;;;7.12;6.50;;;;;;;29.61;42.78;99422.23;1731470;80;21632;-61
2022/06/12 08:06:50;;;;;;;9.70;7.47;;;;;;;29.62;43.16;99430.17;1726705;80;21459;-61
2022/06/12 08:09:17;;;;;;;11.88;7.55;;;;;;;29.68;42.97;99432.09;1735481;80;21081;-60
2022/06/12 08:11:45;;;;;;;8.48;6.95;;;;;;;29.83;42.94;99427.14;1738060;80;21597;-60
2022/06/12 08:14:13;;;;;;;7.75;6.97;;;;;;;29.89;43.25;99425.00;1746049;80;20944;-63
2022/06/12 08:16:41;;;;;;;7.95;7.17;;;;;;;29.98;42.46;99427.06;1723326;80;21415;-62
2022/06/12 08:21:56;;;;;;;8.18;7.40;;;;;;;30.07;43.02;99432.66;1741365;80;21913;-60
2022/06/12 08:24:23;;;;;;;11.20;8.30;;;;;;;30.19;43.12;99428.34;1741352;80;21760;-61
2022/06/12 08:26:50;;;;;;;8.17;7.30;;;;;;;30.22;42.75;99437.45;1734438;79;21704;-60
2022/06/12 08:29:16;;;;;;;9.23;7.70;;;;;;;30.27;42.44;99426.85;1728186;80;21818;-63
2022/06/12 08:31:47;;;;;;;8.40;7.60;;;;;;;30.22;42.73;99429.31;1684904;84;21435;-60
2022/06/12 08:34:22;;;;;;;12.25;8.50;;;;;;;30.32;42.90;99428.13;1718587;81;21495;-60
2022/06/12 08:36:56;;;;;;;8.35;7.37;;;;;;;30.39;42.06;99436.65;1726666;80;21909;-60
2022/06/12 08:39:24;;;;;;;8.53;6.90;;;;;;;30.47;41.91;99430.22;1681471;84;21979;-59
2022/06/12 08:42:17;;;;;;;8.98;7.30;;;;;;;30.54;42.10;99422.96;1727575;79;21534;-60
2022/06/12 08:44:52;;;;;;;8.13;7.33;;;;;;;30.61;41.19;99422.98;1721882;81;21550;-61
2022/06/12 08:47:31;;;;;;;12.28;7.80;;;;;;;30.69;40.77;99422.83;1716350;80;21660;-60
2022/06/12 08:50:29;;;;;;;8.33;7.28;;;;;;;30.71;41.04;99428.89;1692204;82;21850;-59
2022/06/12 08:53:01;;;;;;;8.23;7.42;;;;;;;30.80;41.54;99428.20;1680394;83;21498;-61
2022/06/12 08:55:50;;;;;;;9.08;6.87;;;;;;;30.85;41.09;99422.98;1722573;81;21444;-60
2022/06/12 08:58:31;;;;;;;6.40;5.90;;;;;;;30.89;41.02;99424.25;1680383;84;21014;-61
2022/06/12 09:00:59;;;;;;;8.25;6.45;;;;;;;30.91;40.75;99420.88;1682390;84;21001;-60
2022/06/12 09:03:32;;;;;;;7.67;6.72;;;;;;;30.85;40.75;99419.78;1729557;80;21928;-61
2022/06/12 09:06:34;;;;;;;6.60;5.92;;;;;;;30.88;41.04;99416.33;1724999;80;21569;-64
2022/06/12 09:09:12;;;;;;;7.90;6.83;;;;;;;30.93;41.69;99415.22;1718271;80;21422;-61
2022/06/12 09:11:47;;;;;;;7.33;6.00;;;;;;;31.05;40.74;99419.03;1714053;81;21456;-60
2022/06/12 09:14:22;;;;;;;9.18;7.70;;;;;;;31.09;40.23;99416.74;1716385;81;20995;-62
2022/06/12 09:17:21;;;;;;;7.75;6.87;;;;;;;31.14;40.18;99413.73;1722729;81;21447;-61
2022/06/12 09:20:12;;;;;;;7.22;6.53;;;;;;;31.15;40.37;99406.41;1726265;80;21506;-63
2022/06/12 09:23:00;;;;;;;7.45;6.75;;;;;;;31.28;40.47;99414.59;1728219;80;21447;-61
2022/06/12 09:25:39;;;;;;;9.25;8.45;;;;;;;31.37;39.84;99407.09;1721737;81;21440;-60
2022/06/12 09:28:32;;;;;;;9.55;8.45;;;;;;;31.45;40.69;99410.95;1721607;80;21013;-60
2022/06/12 09:31:22;;;;;;;8.60;7.70;;;;;;;31.60;40.71;99406.72;1692008;83;21497;-61
2022/06/12 09:34:07;;;;;;;16.02;9.88;;;;;;;31.60;39.70;99404.00;1682769;83;21575;-60
2022/06/12 09:36:47;;;;;;;9.13;7.13;;;;;;;31.56;39.82;99398.67;1704385;82;21501;-60
2022/06/12 09:39:42;;;;;;;7.67;6.90;;;;;;;31.58;39.91;99402.02;1677606;83;21443;-60
2022/06/12 09:42:18;;;;;;;6.72;6.12;;;;;;;31.66;39.14;99399.61;1682110;83;21507;-62
2022/06/12 09:44:58;;;;;;;9.73;6.58;;;;;;;31.72;39.31;99403.70;1675400;83;21857;-61
2022/06/12 09:47:49;;;;;;;6.85;6.22;;;;;;;31.84;39.51;99401.72;1678942;83;21129;-62
2022/06/12 09:50:40;;;;;;;7.10;6.20;;;;;;;31.89;39.56;99396.45;1685816;84;21527;-60
2022/06/12 09:53:21;;;;;;;7.58;6.30;;;;;;;32.01;39.03;99388.81;1681062;84;21522;-64
2022/06/12 09:55:58;;;;;;;6.83;6.22;;;;;;;32.08;39.10;99388.86;1669498;84;21495;-62
2022/06/12 09:58:39;;;;;;;10.53;7.50;;;;;;;32.16;39.06;99386.43;1699751;82;21819;-64
2022/06/12 10:01:17;;;;;;;6.72;6.12;;;;;;;32.19;38.33;99385.48;1700039;82;21526;-60
2022/06/12 10:03:55;;;;;;;9.65;6.35;;;;;;;32.20;38.14;99384.41;1702356;82;21510;-61
2022/06/12 10:06:29;;;;;;;10.45;7.65;;;;;;;32.11;38.45;99385.69;1674706;82;21450;-62
2022/06/12 10:09:07;;;;;;;7.72;6.08;;;;;;;32.02;38.18;99386.95;1694979;81;21696;-60
2022/06/12 10:11:47;;;;;;;7.08;5.50;;;;;;;32.05;38.10;99393.34;1709615;82;21840;-60
2022/06/12 10:14:37;;;;;;;6.65;5.17;;;;;;;32.11;37.85;99388.41;1702398;81;21504;-60
2022/06/12 10:17:09;;;;;;;8.95;5.28;;;;;;;32.20;37.45;99381.70;1673603;83;21609;-60
2022/06/12 10:19:45;;;;;;;6.45;5.17;;;;;;;32.27;37.41;99380.34;1679208;83;22016;-62
2022/06/12 10:22:31;;;;;;;6.10;5.30;;;;;;;32.22;36.84;99378.77;1671877;83;21467;-62
2022/06/12 10:24:59;;;;;;;5.30;4.90;;;;;;;32.16;36.75;99377.73;1677995;83;21837;-61
2022/06/12 10:27:26;;;;;;;5.40;4.90;;;;;;;32.24;37.07;99379.39;1681660;83;21510;-61
2022/06/12 10:30:00;;;;;;;5.62;4.35;;;;;;;32.31;36.12;99378.03;1671942;83;21562;-61
2022/06/12 10:32:49;;;;;;;4.75;4.28;;;;;;;32.32;35.64;99374.23;1672287;84;21724;-61
2022/06/12 10:35:17;;;;;;;4.78;4.22;;;;;;;32.24;34.80;99375.31;1606012;87;21496;-62
2022/06/12 10:37:44;;;;;;;7.55;4.50;;;;;;;32.12;34.29;99368.34;1679621;83;21900;-61
2022/06/12 10:40:18;;;;;;;4.47;4.07;;;;;;;32.11;34.50;99369.37;1693416;83;21454;-61
2022/06/12 10:43:00;;;;;;;6.33;4.08;;;;;;;32.26;35.13;99373.75;1739053;80;21833;-62
2022/06/12 10:45:35;;;;;;;5.78;4.20;;;;;;;32.39;35.01;99373.17;1728998;80;21510;-62
2022/06/12 10:48:26;;;;;;;5.40;4.62;;;;;;;32.51;35.24;99372.50;1734150;80;21573;-60
2022/06/12 10:50:57;;;;;;;4.47;4.17;;;;;;;32.64;34.19;99371.65;1733536;80;21842;-59
2022/06/12 10:53:28;;;;;;;4.65;4.25;;;;;;;32.65;34.29;99374.16;1729379;80;21431;-59
2022/06/12 10:56:02;;;;;;;4.40;3.77;;;;;;;32.64;33.84;99374.37;1737648;80;21483;-59
2022/06/12 10:59:13;;;;;;;10.43;4.08;;;;;;;32.71;34.15;99364.30;1730933;80;21558;-59
2022/06/12 11:01:49;;;;;;;5.62;3.95;;;;;;;32.72;33.35;99365.95;1743874;81;21365;-60
2022/06/12 11:04:31;;;;;;;4.28;3.87;;;;;;;32.70;32.62;99361.25;1735250;81;21553;-59
2022/06/12 11:07:27;;;;;;;7.42;3.83;;;;;;;32.66;32.98;99352.68;1724095;81;21549;-62
2022/06/12 11:10:27;;;;;;;5.70;3.37;;;;;;;32.68;32.57;99359.27;1740889;80;20960;-63
2022/06/12 11:13:34;;;;;;;5.45;3.25;;;;;;;32.77;33.50;99356.08;1744683;81;21493;-61
2022/06/12 11:16:37;;;;;;;4.92;3.65;;;;;;;32.94;32.34;99351.49;1735674;81;21550;-63
2022/06/12 11:19:26;;;;;;;3.67;3.30;;;;;;;32.96;31.68;99352.11;1742137;80;22057;-63
2022/06/12 11:22:26;;;;;;;8.43;4.03;;;;;;;33.04;31.67;99342.84;1741428;80;21485;-63
2022/06/12 11:25:11;;;;;;;8.43;3.90;;;;;;;33.12;31.29;99333.09;1747340;80;21496;-63
2022/06/12 11:27:44;;;;;;;8.58;3.87;;;;;;;33.15;31.07;99329.41;1741097;81;21453;-62
2022/06/12 11:30:22;;;;;;;7.33;3.98;;;;;;;33.24;31.47;99334.58;1734535;80;21548;-62
2022/06/12 11:33:06;;;;;;;5.60;3.55;;;;;;;33.33;31.26;99332.71;1740171;80;21782;-61
2022/06/12 11:35:46;;;;;;;4.92;4.10;;;;;;;33.39;30.68;99332.35;1736996;81;21585;-62
2022/06/12 11:38:42;;;;;;;8.05;5.00;;;;;;;33.43;31.25;99318.59;1742898;81;20929;-63
2022/06/12 11:41:18;;;;;;;5.15;4.25;;;;;;;33.46;31.52;99326.33;1741724;80;21434;-62
2022/06/12 11:44:39;;;;;;;4.42;4.12;;;;;;;33.48;32.75;99327.47;1747513;80;21595;-62
2022/06/12 11:47:22;;;;;;;5.83;4.45;;;;;;;33.48;32.91;99323.38;1734748;81;21508;-65
2022/06/12 11:50:19;;;;;;;7.83;4.87;;;;;;;33.49;32.73;99318.22;1740396;80;20953;-62
2022/06/12 11:52:57;;;;;;;16.23;6.03;;;;;;;33.40;32.37;99320.92;1743067;80;21452;-61
2022/06/12 11:55:57;;;;;;;6.25;5.35;;;;;;;33.35;32.58;99317.52;1737799;81;21524;-61
2022/06/12 11:58:47;;;;;;;6.08;4.50;;;;;;;33.35;32.49;99314.78;1742268;80;20987;-62
2022/06/12 12:01:49;;;;;;;7.35;4.37;;;;;;;33.23;31.95;99313.83;1737111;80;21739;-63
2022/06/12 12:04:55;;;;;;;4.58;4.17;;;;;;;33.12;32.44;99309.41;1706392;81;21596;-65
2022/06/12 12:07:36;;;;;;;6.42;4.20;;;;;;;33.28;33.28;99313.47;1634476;85;22090;-62
2022/06/12 12:10:44;;;;;;;8.40;4.62;;;;;;;33.45;32.42;99312.92;1716211;81;21480;-62
2022/06/12 12:13:16;;;;;;;4.87;4.10;;;;;;;33.45;32.28;99304.74;1737078;81;21438;-62
2022/06/12 12:15:54;;;;;;;4.12;3.70;;;;;;;33.48;32.40;99310.59;1735268;81;21749;-64
2022/06/12 12:18:38;;;;;;;5.67;4.55;;;;;;;33.61;32.40;99297.38;1739410;80;27139;-63
2022/06/12 12:21:39;;;;;;;4.28;3.87;;;;;;;33.75;32.18;99302.18;1724879;80;21523;-61
2022/06/12 12:24:11;;;;;;;5.03;4.05;;;;;;;33.72;32.56;99298.56;1732639;81;21027;-61
2022/06/12 12:26:40;;;;;;;4.40;4.10;;;;;;;33.53;32.44;99300.36;1735158;80;21590;-62